Texas Enterprise — KSDF — position and weather

sailwx.info

Track history (hours):
 
Tides and Currents Weather Stations Pressure Air Temp Water Temp Dewpoint Dewpoint Depression Visibility Wind Speed Wind Dir Waves Ship Positions

Texas Enterprise

Owner: U.S. United Ocean Services, LLC, Tampa, FL. More information available from US FCC via Universal Licensing System and Coast Guard Vessel Documentation Center.

Last reported at 2015-Feb-26 05:15 UTC. Time now 2015-Feb-28 00:46 UTC.
Position N 29°21' W 094°45'.

Type: Cargo ship. MMSI: 366163000.

Date/timePositionNaut miles runAvg speedWind from/ knotsBaromVisibWave heightAir tempDewpointWater temp
2015-Feb-26 05:15N 29°21' W 094°45'1011.9
2015-Feb-26 04:24N 29°29' W 094°52'1011.4
2015-Feb-26 03:33N 29°37' W 094°57'9 8.9
2015-Feb-26 02:33N 29°44' W 095°03'4 4.5
2015-Feb-26 01:33N 29°44' W 095°09'0 0.0
2015-Feb-26 00:33N 29°44' W 095°09'0 0.0
2015-Feb-25 23:33N 29°44' W 095°09'0 0.0
2015-Feb-25 22:33N 29°44' W 095°09'0 0.0
2015-Feb-25 20:33N 29°44' W 095°09'0 0.0
2015-Feb-25 19:33N 29°44' W 095°09'0 0.0
2015-Feb-25 18:33N 29°44' W 095°09'0 0.0
2015-Feb-25 17:33N 29°44' W 095°09'0 0.0
2015-Feb-25 16:33N 29°44' W 095°09'0 0.0
2015-Feb-25 15:33N 29°44' W 095°09'0 0.0
2015-Feb-25 14:32N 29°44' W 095°09'0 0.0
2015-Feb-25 13:32N 29°44' W 095°09'0 0.0
2015-Feb-25 12:27N 29°44' W 095°09'0 0.0
2015-Feb-25 11:33N 29°44' W 095°09'0 0.0
2015-Feb-25 10:30N 29°44' W 095°09'0 0.0
2015-Feb-25 09:32N 29°44' W 095°09'0 0.0
2015-Feb-25 08:33N 29°44' W 095°09'0 0.0
2015-Feb-25 07:33N 29°44' W 095°09'0 0.0
2015-Feb-25 06:32N 29°44' W 095°09'0 0.0
2015-Feb-25 05:32N 29°44' W 095°09'0 0.0
2015-Feb-25 04:32N 29°44' W 095°09'0 0.0
2015-Feb-25 03:32N 29°44' W 095°09'0 0.0
2015-Feb-25 02:33N 29°44' W 095°09'0 0.0
2015-Feb-25 01:32N 29°44' W 095°09'0 0.0
2015-Feb-25 00:32N 29°44' W 095°09'0 0.0
2015-Feb-24 23:32N 29°44' W 095°09'0 0.0
2015-Feb-24 22:29N 29°44' W 095°09'0 0.0
2015-Feb-24 21:32N 29°44' W 095°09'0 0.0
2015-Feb-24 20:26N 29°44' W 095°09'0 0.0
2015-Feb-24 19:32N 29°44' W 095°09'0 0.0
2015-Feb-24 18:32N 29°44' W 095°09'0 0.0
2015-Feb-24 17:32N 29°44' W 095°09'0 0.0
2015-Feb-24 16:32N 29°44' W 095°09'0 0.0
2015-Feb-24 15:32N 29°44' W 095°09'0 0.0
2015-Feb-24 14:32N 29°44' W 095°09'0 0.0
2015-Feb-24 13:32N 29°44' W 095°09'0 0.0
2015-Feb-24 12:33N 29°44' W 095°09'0 0.0
2015-Feb-24 11:32N 29°44' W 095°09'0 0.0
2015-Feb-24 10:32N 29°44' W 095°09'0 0.0
2015-Feb-24 09:32N 29°44' W 095°09'0 0.0
2015-Feb-24 08:32N 29°44' W 095°09'0 0.0
2015-Feb-24 07:32N 29°44' W 095°09'0 0.0
2015-Feb-24 06:32N 29°44' W 095°09'0 0.0
2015-Feb-24 05:32N 29°44' W 095°09'0 0.0
2015-Feb-24 04:33N 29°44' W 095°09'0 0.0
2015-Feb-24 03:33N 29°44' W 095°09'0 0.1
2015-Feb-24 02:33N 29°44' W 095°09'6 6.3
2015-Feb-24 01:33N 29°44' W 095°01'1212.3
2015-Feb-24 00:33N 29°33' W 094°54'1413.7
2015-Feb-23 23:33N 29°21' W 094°47'  
2015-Feb-21 18:33N 27°45' W 082°32'7 7.3
2015-Feb-21 17:34N 27°48' W 082°25'0 0.0
2015-Feb-21 16:33N 27°48' W 082°25'0 0.0
2015-Feb-21 15:33N 27°48' W 082°25'0 0.0
2015-Feb-21 14:33N 27°48' W 082°25'0 0.0
2015-Feb-21 13:33N 27°48' W 082°25'0 0.0
2015-Feb-21 12:33N 27°48' W 082°25'0 0.0
2015-Feb-21 11:33N 27°48' W 082°25'0 0.0
2015-Feb-21 10:33N 27°48' W 082°25'0 0.0
2015-Feb-21 09:33N 27°48' W 082°25'0 0.0
2015-Feb-21 08:33N 27°48' W 082°25'0 0.0
2015-Feb-21 07:33N 27°48' W 082°25'0 0.0
2015-Feb-21 06:33N 27°48' W 082°25'0 0.0
2015-Feb-21 05:33N 27°48' W 082°25'0 0.0
2015-Feb-21 04:33N 27°48' W 082°25'0 0.0
2015-Feb-21 03:33N 27°48' W 082°25'0 0.0
2015-Feb-21 02:33N 27°48' W 082°25'0 0.0
2015-Feb-21 01:33N 27°48' W 082°25'0 0.0
2015-Feb-21 00:33N 27°48' W 082°25'0 0.0
2015-Feb-20 23:33N 27°48' W 082°25'0 0.0
2015-Feb-20 22:33N 27°48' W 082°25'0 0.0
2015-Feb-20 21:33N 27°48' W 082°25'0 0.0
2015-Feb-20 20:33N 27°48' W 082°25'0 0.0
2015-Feb-20 19:33N 27°48' W 082°25'0 0.0
2015-Feb-20 18:33N 27°48' W 082°25'0 0.0
2015-Feb-20 17:33N 27°48' W 082°25'0 0.0
2015-Feb-20 16:33N 27°48' W 082°25'0 0.0
2015-Feb-20 15:33N 27°48' W 082°25'0 0.0
2015-Feb-20 14:33N 27°48' W 082°25'0 0.0
2015-Feb-20 13:33N 27°48' W 082°25'0 0.0
2015-Feb-20 12:33N 27°48' W 082°25'0 0.0
2015-Feb-20 11:33N 27°48' W 082°25'0 0.0
2015-Feb-20 10:33N 27°48' W 082°25'0 0.0
2015-Feb-20 09:33N 27°48' W 082°25'0 0.0
2015-Feb-20 08:33N 27°48' W 082°25'0 0.0
2015-Feb-20 07:30N 27°48' W 082°25'0 0.0
2015-Feb-20 06:33N 27°48' W 082°25'0 0.0
2015-Feb-20 05:33N 27°48' W 082°25'0 0.0
2015-Feb-20 04:33N 27°48' W 082°25'0 0.0
2015-Feb-20 03:33N 27°48' W 082°25'0 0.0
2015-Feb-20 02:33N 27°48' W 082°25'0 0.0
2015-Feb-20 01:33N 27°48' W 082°25'0 0.0
2015-Feb-20 00:33N 27°48' W 082°25'1 0.6
2015-Feb-19 23:33N 27°48' W 082°25'0 0.0
2015-Feb-19 22:31N 27°48' W 082°25'0 0.0
2015-Feb-19 21:31N 27°48' W 082°25'0 0.0
2015-Feb-19 20:31N 27°48' W 082°25'0 0.0
2015-Feb-19 19:31N 27°48' W 082°25'0 0.0
2015-Feb-19 18:31N 27°48' W 082°25'0 0.0
2015-Feb-19 17:31N 27°48' W 082°25'0 0.0
2015-Feb-19 16:31N 27°48' W 082°25'0 0.0
2015-Feb-19 15:31N 27°48' W 082°25'0 0.0
2015-Feb-19 14:31N 27°48' W 082°25'0 0.0
2015-Feb-19 13:31N 27°48' W 082°25'0 0.0
2015-Feb-19 12:31N 27°48' W 082°25'0 0.0
2015-Feb-19 11:31N 27°48' W 082°25'0 0.0
2015-Feb-19 10:31N 27°48' W 082°25'0 0.0
2015-Feb-19 09:31N 27°48' W 082°25'0 0.0
2015-Feb-19 08:31N 27°48' W 082°25'0 0.0
2015-Feb-19 07:28N 27°48' W 082°25'0 0.0
2015-Feb-19 06:31N 27°48' W 082°25'0 0.0
2015-Feb-19 05:31N 27°48' W 082°25'0 0.0
2015-Feb-19 04:31N 27°48' W 082°25'0 0.0
2015-Feb-19 03:31N 27°48' W 082°25'0 0.0
2015-Feb-19 02:31N 27°48' W 082°25'0 0.0
2015-Feb-19 01:31N 27°48' W 082°25'0 0.0
2015-Feb-19 00:31N 27°48' W 082°25'0 0.0
2015-Feb-18 23:31N 27°48' W 082°25'0 0.0
2015-Feb-18 22:31N 27°48' W 082°25'0 0.0
2015-Feb-18 21:31N 27°48' W 082°25'0 0.0
2015-Feb-18 20:31N 27°48' W 082°25'0 0.0
2015-Feb-18 19:31N 27°48' W 082°25'0 0.0
2015-Feb-18 18:31N 27°48' W 082°25'0 0.0
2015-Feb-18 17:31N 27°48' W 082°25'0 0.0
2015-Feb-18 16:31N 27°48' W 082°25'0 0.0
2015-Feb-18 15:31N 27°48' W 082°25'0 0.0
2015-Feb-18 14:31N 27°48' W 082°25'0 0.0
2015-Feb-18 13:28N 27°48' W 082°25'0 0.0
2015-Feb-18 12:31N 27°48' W 082°25'0 0.0
2015-Feb-18 11:31N 27°48' W 082°25'0 0.0
2015-Feb-18 10:31N 27°48' W 082°25'0 0.0
2015-Feb-18 09:31N 27°48' W 082°25'0 0.0
2015-Feb-18 08:31N 27°48' W 082°25'0 0.0
2015-Feb-18 07:31N 27°48' W 082°25'0 0.0
2015-Feb-18 06:31N 27°48' W 082°25'0 0.0
2015-Feb-18 05:28N 27°48' W 082°25'0 0.0
2015-Feb-18 04:31N 27°48' W 082°25'0 0.0
2015-Feb-18 03:31N 27°48' W 082°25'0 0.0
2015-Feb-18 02:31N 27°48' W 082°25'0 0.0
2015-Feb-18 01:31N 27°48' W 082°25'0 0.0
2015-Feb-18 00:31N 27°48' W 082°25'0 0.0
2015-Feb-17 23:31N 27°48' W 082°25'0 0.0
2015-Feb-17 22:31N 27°48' W 082°25'0 0.0
2015-Feb-17 21:31N 27°48' W 082°25'0 0.0
2015-Feb-17 20:31N 27°48' W 082°25'0 0.0
2015-Feb-17 19:31N 27°48' W 082°25'0 0.0
2015-Feb-17 17:31N 27°48' W 082°25'0 0.0
2015-Feb-17 16:31N 27°48' W 082°25'0 0.0
2015-Feb-17 15:31N 27°48' W 082°25'0 0.0
2015-Feb-17 14:31N 27°48' W 082°25'0 0.0
2015-Feb-17 13:31N 27°48' W 082°25'0 0.0
2015-Feb-17 12:31N 27°48' W 082°25'0 0.0
2015-Feb-17 11:31N 27°48' W 082°25'0 0.0
2015-Feb-17 10:31N 27°48' W 082°25'0 0.0
2015-Feb-17 09:31N 27°48' W 082°25'0 0.0
2015-Feb-17 08:31N 27°48' W 082°25'0 0.0
2015-Feb-17 07:31N 27°48' W 082°25'0 0.0
2015-Feb-17 06:31N 27°48' W 082°25'0 0.0
2015-Feb-17 05:31N 27°48' W 082°25'0 0.0
2015-Feb-17 04:31N 27°48' W 082°25'0 0.0
2015-Feb-17 03:31N 27°48' W 082°25'0 0.0
2015-Feb-17 02:28N 27°48' W 082°25'0 0.0
2015-Feb-17 01:31N 27°48' W 082°25'0 0.0
2015-Feb-17 00:31N 27°48' W 082°25'0 0.0
2015-Feb-16 23:31N 27°48' W 082°25'0 0.0
2015-Feb-16 22:31N 27°48' W 082°25'0 0.0
2015-Feb-16 21:31N 27°48' W 082°25'0 0.0
2015-Feb-16 20:31N 27°48' W 082°25'0 0.0
2015-Feb-16 19:31N 27°48' W 082°25'0 0.0
2015-Feb-16 18:31N 27°48' W 082°25'0 0.0
2015-Feb-16 17:31N 27°48' W 082°25'0 0.0
2015-Feb-16 16:31N 27°48' W 082°25'0 0.0
2015-Feb-16 15:31N 27°48' W 082°25'1 0.7
2015-Feb-16 14:33N 27°48' W 082°25'7 6.9
2015-Feb-16 13:33N 27°45' W 082°32'1412.5
2015-Feb-16 12:26N 27°36' W 082°44'1312.0
2015-Feb-16 11:21N 27°36' W 082°59'  
Track history (hours):
 
Tides and Currents Weather Stations Pressure Air Temp Water Temp Dewpoint Dewpoint Depression Visibility Wind Speed Wind Dir Waves Ship Positions

Texas Enterprise

Owner: U.S. United Ocean Services, LLC, Tampa, FL. More information available from US FCC via Universal Licensing System and Coast Guard Vessel Documentation Center.

Last reported at 2015-Feb-26 05:15 UTC. Time now 2015-Feb-28 00:46 UTC.
Position N 29°21' W 094°45'.

Type: Cargo ship. MMSI: 366163000.

Date/timePositionNaut miles runAvg speedWind from/ knotsBaromVisibWave heightAir tempDewpointWater temp
2015-Feb-26 05:15N 29°21' W 094°45'1011.9
2015-Feb-26 04:24N 29°29' W 094°52'1011.4
2015-Feb-26 03:33N 29°37' W 094°57'9 8.9
2015-Feb-26 02:33N 29°44' W 095°03'4 4.5
2015-Feb-26 01:33N 29°44' W 095°09'0 0.0
2015-Feb-26 00:33N 29°44' W 095°09'0 0.0
2015-Feb-25 23:33N 29°44' W 095°09'0 0.0
2015-Feb-25 22:33N 29°44' W 095°09'0 0.0
2015-Feb-25 20:33N 29°44' W 095°09'0 0.0
2015-Feb-25 19:33N 29°44' W 095°09'0 0.0
2015-Feb-25 18:33N 29°44' W 095°09'0 0.0
2015-Feb-25 17:33N 29°44' W 095°09'0 0.0
2015-Feb-25 16:33N 29°44' W 095°09'0 0.0
2015-Feb-25 15:33N 29°44' W 095°09'0 0.0
2015-Feb-25 14:32N 29°44' W 095°09'0 0.0
2015-Feb-25 13:32N 29°44' W 095°09'0 0.0
2015-Feb-25 12:27N 29°44' W 095°09'0 0.0
2015-Feb-25 11:33N 29°44' W 095°09'0 0.0
2015-Feb-25 10:30N 29°44' W 095°09'0 0.0
2015-Feb-25 09:32N 29°44' W 095°09'0 0.0
2015-Feb-25 08:33N 29°44' W 095°09'0 0.0
2015-Feb-25 07:33N 29°44' W 095°09'0 0.0
2015-Feb-25 06:32N 29°44' W 095°09'0 0.0
2015-Feb-25 05:32N 29°44' W 095°09'0 0.0
2015-Feb-25 04:32N 29°44' W 095°09'0 0.0
2015-Feb-25 03:32N 29°44' W 095°09'0 0.0
2015-Feb-25 02:33N 29°44' W 095°09'0 0.0
2015-Feb-25 01:32N 29°44' W 095°09'0 0.0
2015-Feb-25 00:32N 29°44' W 095°09'0 0.0
2015-Feb-24 23:32N 29°44' W 095°09'0 0.0
2015-Feb-24 22:29N 29°44' W 095°09'0 0.0
2015-Feb-24 21:32N 29°44' W 095°09'0 0.0
2015-Feb-24 20:26N 29°44' W 095°09'0 0.0
2015-Feb-24 19:32N 29°44' W 095°09'0 0.0
2015-Feb-24 18:32N 29°44' W 095°09'0 0.0
2015-Feb-24 17:32N 29°44' W 095°09'0 0.0
2015-Feb-24 16:32N 29°44' W 095°09'0 0.0
2015-Feb-24 15:32N 29°44' W 095°09'0 0.0
2015-Feb-24 14:32N 29°44' W 095°09'0 0.0
2015-Feb-24 13:32N 29°44' W 095°09'0 0.0
2015-Feb-24 12:33N 29°44' W 095°09'0 0.0
2015-Feb-24 11:32N 29°44' W 095°09'0 0.0
2015-Feb-24 10:32N 29°44' W 095°09'0 0.0
2015-Feb-24 09:32N 29°44' W 095°09'0 0.0
2015-Feb-24 08:32N 29°44' W 095°09'0 0.0
2015-Feb-24 07:32N 29°44' W 095°09'0 0.0
2015-Feb-24 06:32N 29°44' W 095°09'0 0.0
2015-Feb-24 05:32N 29°44' W 095°09'0 0.0
2015-Feb-24 04:33N 29°44' W 095°09'0 0.0
2015-Feb-24 03:33N 29°44' W 095°09'0 0.1
2015-Feb-24 02:33N 29°44' W 095°09'6 6.3
2015-Feb-24 01:33N 29°44' W 095°01'1212.3
2015-Feb-24 00:33N 29°33' W 094°54'1413.7
2015-Feb-23 23:33N 29°21' W 094°47'  
2015-Feb-21 18:33N 27°45' W 082°32'7 7.3
2015-Feb-21 17:34N 27°48' W 082°25'0 0.0
2015-Feb-21 16:33N 27°48' W 082°25'0 0.0
2015-Feb-21 15:33N 27°48' W 082°25'0 0.0
2015-Feb-21 14:33N 27°48' W 082°25'0 0.0
2015-Feb-21 13:33N 27°48' W 082°25'0 0.0
2015-Feb-21 12:33N 27°48' W 082°25'0 0.0
2015-Feb-21 11:33N 27°48' W 082°25'0 0.0
2015-Feb-21 10:33N 27°48' W 082°25'0 0.0
2015-Feb-21 09:33N 27°48' W 082°25'0 0.0
2015-Feb-21 08:33N 27°48' W 082°25'0 0.0
2015-Feb-21 07:33N 27°48' W 082°25'0 0.0
2015-Feb-21 06:33N 27°48' W 082°25'0 0.0
2015-Feb-21 05:33N 27°48' W 082°25'0 0.0
2015-Feb-21 04:33N 27°48' W 082°25'0 0.0
2015-Feb-21 03:33N 27°48' W 082°25'0 0.0
2015-Feb-21 02:33N 27°48' W 082°25'0 0.0
2015-Feb-21 01:33N 27°48' W 082°25'0 0.0
2015-Feb-21 00:33N 27°48' W 082°25'0 0.0
2015-Feb-20 23:33N 27°48' W 082°25'0 0.0
2015-Feb-20 22:33N 27°48' W 082°25'0 0.0
2015-Feb-20 21:33N 27°48' W 082°25'0 0.0
2015-Feb-20 20:33N 27°48' W 082°25'0 0.0
2015-Feb-20 19:33N 27°48' W 082°25'0 0.0
2015-Feb-20 18:33N 27°48' W 082°25'0 0.0
2015-Feb-20 17:33N 27°48' W 082°25'0 0.0
2015-Feb-20 16:33N 27°48' W 082°25'0 0.0
2015-Feb-20 15:33N 27°48' W 082°25'0 0.0
2015-Feb-20 14:33N 27°48' W 082°25'0 0.0
2015-Feb-20 13:33N 27°48' W 082°25'0 0.0
2015-Feb-20 12:33N 27°48' W 082°25'0 0.0
2015-Feb-20 11:33N 27°48' W 082°25'0 0.0
2015-Feb-20 10:33N 27°48' W 082°25'0 0.0
2015-Feb-20 09:33N 27°48' W 082°25'0 0.0
2015-Feb-20 08:33N 27°48' W 082°25'0 0.0
2015-Feb-20 07:30N 27°48' W 082°25'0 0.0
2015-Feb-20 06:33N 27°48' W 082°25'0 0.0
2015-Feb-20 05:33N 27°48' W 082°25'0 0.0
2015-Feb-20 04:33N 27°48' W 082°25'0 0.0
2015-Feb-20 03:33N 27°48' W 082°25'0 0.0
2015-Feb-20 02:33N 27°48' W 082°25'0 0.0
2015-Feb-20 01:33N 27°48' W 082°25'0 0.0
2015-Feb-20 00:33N 27°48' W 082°25'1 0.6
2015-Feb-19 23:33N 27°48' W 082°25'0 0.0
2015-Feb-19 22:31N 27°48' W 082°25'0 0.0
2015-Feb-19 21:31N 27°48' W 082°25'0 0.0
2015-Feb-19 20:31N 27°48' W 082°25'0 0.0
2015-Feb-19 19:31N 27°48' W 082°25'0 0.0
2015-Feb-19 18:31N 27°48' W 082°25'0 0.0
2015-Feb-19 17:31N 27°48' W 082°25'0 0.0
2015-Feb-19 16:31N 27°48' W 082°25'0 0.0
2015-Feb-19 15:31N 27°48' W 082°25'0 0.0
2015-Feb-19 14:31N 27°48' W 082°25'0 0.0
2015-Feb-19 13:31N 27°48' W 082°25'0 0.0
2015-Feb-19 12:31N 27°48' W 082°25'0 0.0
2015-Feb-19 11:31N 27°48' W 082°25'0 0.0
2015-Feb-19 10:31N 27°48' W 082°25'0 0.0
2015-Feb-19 09:31N 27°48' W 082°25'0 0.0
2015-Feb-19 08:31N 27°48' W 082°25'0 0.0
2015-Feb-19 07:28N 27°48' W 082°25'0 0.0
2015-Feb-19 06:31N 27°48' W 082°25'0 0.0
2015-Feb-19 05:31N 27°48' W 082°25'0 0.0
2015-Feb-19 04:31N 27°48' W 082°25'0 0.0
2015-Feb-19 03:31N 27°48' W 082°25'0 0.0
2015-Feb-19 02:31N 27°48' W 082°25'0 0.0
2015-Feb-19 01:31N 27°48' W 082°25'0 0.0
2015-Feb-19 00:31N 27°48' W 082°25'0 0.0
2015-Feb-18 23:31N 27°48' W 082°25'0 0.0
2015-Feb-18 22:31N 27°48' W 082°25'0 0.0
2015-Feb-18 21:31N 27°48' W 082°25'0 0.0
2015-Feb-18 20:31N 27°48' W 082°25'0 0.0
2015-Feb-18 19:31N 27°48' W 082°25'0 0.0
2015-Feb-18 18:31N 27°48' W 082°25'0 0.0
2015-Feb-18 17:31N 27°48' W 082°25'0 0.0
2015-Feb-18 16:31N 27°48' W 082°25'0 0.0
2015-Feb-18 15:31N 27°48' W 082°25'0 0.0
2015-Feb-18 14:31N 27°48' W 082°25'0 0.0
2015-Feb-18 13:28N 27°48' W 082°25'0 0.0
2015-Feb-18 12:31N 27°48' W 082°25'0 0.0
2015-Feb-18 11:31N 27°48' W 082°25'0 0.0
2015-Feb-18 10:31N 27°48' W 082°25'0 0.0
2015-Feb-18 09:31N 27°48' W 082°25'0 0.0
2015-Feb-18 08:31N 27°48' W 082°25'0 0.0
2015-Feb-18 07:31N 27°48' W 082°25'0 0.0
2015-Feb-18 06:31N 27°48' W 082°25'0 0.0
2015-Feb-18 05:28N 27°48' W 082°25'0 0.0
2015-Feb-18 04:31N 27°48' W 082°25'0 0.0
2015-Feb-18 03:31N 27°48' W 082°25'0 0.0
2015-Feb-18 02:31N 27°48' W 082°25'0 0.0
2015-Feb-18 01:31N 27°48' W 082°25'0 0.0
2015-Feb-18 00:31N 27°48' W 082°25'0 0.0
2015-Feb-17 23:31N 27°48' W 082°25'0 0.0
2015-Feb-17 22:31N 27°48' W 082°25'0 0.0
2015-Feb-17 21:31N 27°48' W 082°25'0 0.0
2015-Feb-17 20:31N 27°48' W 082°25'0 0.0
2015-Feb-17 19:31N 27°48' W 082°25'0 0.0
2015-Feb-17 17:31N 27°48' W 082°25'0 0.0
2015-Feb-17 16:31N 27°48' W 082°25'0 0.0
2015-Feb-17 15:31N 27°48' W 082°25'0 0.0
2015-Feb-17 14:31N 27°48' W 082°25'0 0.0
2015-Feb-17 13:31N 27°48' W 082°25'0 0.0
2015-Feb-17 12:31N 27°48' W 082°25'0 0.0
2015-Feb-17 11:31N 27°48' W 082°25'0 0.0
2015-Feb-17 10:31N 27°48' W 082°25'0 0.0
2015-Feb-17 09:31N 27°48' W 082°25'0 0.0
2015-Feb-17 08:31N 27°48' W 082°25'0 0.0
2015-Feb-17 07:31N 27°48' W 082°25'0 0.0
2015-Feb-17 06:31N 27°48' W 082°25'0 0.0
2015-Feb-17 05:31N 27°48' W 082°25'0 0.0
2015-Feb-17 04:31N 27°48' W 082°25'0 0.0
2015-Feb-17 03:31N 27°48' W 082°25'0 0.0
2015-Feb-17 02:28N 27°48' W 082°25'0 0.0
2015-Feb-17 01:31N 27°48' W 082°25'0 0.0
2015-Feb-17 00:31N 27°48' W 082°25'0 0.0
2015-Feb-16 23:31N 27°48' W 082°25'0 0.0
2015-Feb-16 22:31N 27°48' W 082°25'0 0.0
2015-Feb-16 21:31N 27°48' W 082°25'0 0.0
2015-Feb-16 20:31N 27°48' W 082°25'0 0.0
2015-Feb-16 19:31N 27°48' W 082°25'0 0.0
2015-Feb-16 18:31N 27°48' W 082°25'0 0.0
2015-Feb-16 17:31N 27°48' W 082°25'0 0.0
2015-Feb-16 16:31N 27°48' W 082°25'0 0.0
2015-Feb-16 15:31N 27°48' W 082°25'1 0.7
2015-Feb-16 14:33N 27°48' W 082°25'7 6.9
2015-Feb-16 13:33N 27°45' W 082°32'1412.5
2015-Feb-16 12:26N 27°36' W 082°44'1312.0
2015-Feb-16 11:21N 27°36' W 082°59'  

Dump ship's entire track history